Terminal Aerodrome Forecast
Issued by NWS

Home | Current Version | Previous Version | Graphics & Text | Print | Product List | Glossary On
Versions: 1 2 3 4 5 6 7 8 9 10 11 12 13 14 15 16 17 18 19 20 21 22
000
FTUS43 KICT 191950 AAE
TAFRSL
TAF AMD
KRSL 191950Z 1920/2018 28012G20KT P6SM SCT200
     FM192300 35010KT P6SM BKN060
     FM200200 34012KT P6SM BKN030
     FM201000 32009KT P6SM BKN015
     FM201700 33011KT P6SM BKN045=

USA.gov is the U.S. government's official web portal to all federal, state and local government web resources and services.